Time;durP1;ratioP1;P1;durP2;ratioP2;P2;SDS_P1;SDS_P2;PMS_P1;PMS_P2;Temp;Humidity;BMP_temperature;BMP_pressure;BME280_temperature;BME280_humidity;BME280_pressure;Samples;Min_cycle;Max_cycle;Signal;HPM_P1;HPM_P2
2023/10/20 00:01:00;;;;;;;4.78;2.65;;;15.00;99.90;;;;;;4914753;29;20032;-70
2023/10/20 00:03:27;;;;;;;5.63;3.30;;;14.90;99.90;;;;;;4911453;29;20040;-70
2023/10/20 00:05:53;;;;;;;3.83;2.63;;;15.00;99.90;;;;;;4915808;29;20046;-71
2023/10/20 00:08:19;;;;;;;4.90;2.53;;;15.00;99.90;;;;;;4914965;29;20119;-71
2023/10/20 00:10:45;;;;;;;4.85;2.50;;;15.00;99.90;;;;;;4930499;28;20425;-71
2023/10/20 00:13:11;;;;;;;12.40;2.97;;;15.00;99.90;;;;;;4915149;29;20036;-71
2023/10/20 00:15:37;;;;;;;5.82;3.03;;;15.00;99.90;;;;;;4915700;29;20036;-71
2023/10/20 00:18:03;;;;;;;4.63;2.83;;;15.00;99.90;;;;;;4915755;29;20024;-71
2023/10/20 00:20:29;;;;;;;6.10;2.70;;;15.00;99.90;;;;;;4914665;29;20036;-71
2023/10/20 00:22:55;;;;;;;5.25;2.53;;;15.00;99.90;;;;;;4914672;29;20035;-72
2023/10/20 00:25:22;;;;;;;5.60;3.28;;;15.00;99.90;;;;;;4915822;29;20401;-71
2023/10/20 00:27:48;;;;;;;4.07;2.47;;;15.10;99.90;;;;;;4915310;29;20068;-70
2023/10/20 00:30:14;;;;;;;4.40;2.58;;;15.00;99.90;;;;;;4914510;29;20036;-71
2023/10/20 00:32:40;;;;;;;6.10;2.63;;;15.10;99.90;;;;;;4915922;29;20032;-71
2023/10/20 00:35:13;;;;;;;5.68;3.00;;;15.00;99.90;;;;;;4898678;29;20551;-71
2023/10/20 00:37:39;;;;;;;4.55;3.10;;;15.00;99.90;;;;;;4914703;29;20055;-71
2023/10/20 00:40:07;;;;;;;5.40;2.72;;;15.10;99.90;;;;;;4914429;29;20433;-70
2023/10/20 00:42:35;;;;;;;6.57;2.63;;;15.10;99.90;;;;;;4914357;29;20032;-72
2023/10/20 00:45:01;;;;;;;6.38;3.50;;;15.10;99.90;;;;;;4914428;29;20032;-70
2023/10/20 00:47:27;;;;;;;6.43;2.70;;;15.10;99.90;;;;;;4910857;29;20084;-70
2023/10/20 00:49:54;;;;;;;16.40;4.00;;;15.00;99.90;;;;;;4915367;29;20032;-70
2023/10/20 00:52:21;;;;;;;4.53;2.72;;;15.00;99.90;;;;;;4912164;29;20164;-70
2023/10/20 00:54:47;;;;;;;6.07;2.90;;;15.00;99.90;;;;;;4929210;29;20037;-70
2023/10/20 00:57:17;;;;;;;4.32;2.58;;;15.00;99.90;;;;;;4915742;29;20024;-70
2023/10/20 00:59:43;;;;;;;5.78;2.72;;;15.00;99.90;;;;;;4915791;29;20031;-71
2023/10/20 01:02:10;;;;;;;6.93;3.92;;;14.90;99.90;;;;;;4914253;29;20036;-71
2023/10/20 01:04:36;;;;;;;7.65;2.75;;;14.90;99.90;;;;;;4925698;29;20036;-70
2023/10/20 01:07:02;;;;;;;5.65;3.15;;;15.00;99.90;;;;;;4908435;29;20040;-70
2023/10/20 01:09:28;;;;;;;6.30;2.70;;;15.00;99.90;;;;;;4907614;29;20367;-70
2023/10/20 01:11:54;;;;;;;4.45;2.97;;;15.00;99.90;;;;;;4913622;29;20035;-70
2023/10/20 01:14:20;;;;;;;8.32;3.63;;;15.00;99.90;;;;;;4929717;29;20031;-71
2023/10/20 01:16:47;;;;;;;8.55;3.15;;;14.90;99.90;;;;;;4912385;29;20039;-70
2023/10/20 01:19:14;;;;;;;5.78;3.70;;;14.90;99.90;;;;;;4913790;29;20047;-70
2023/10/20 01:21:40;;;;;;;4.97;3.00;;;14.90;99.90;;;;;;4913616;29;20040;-70
2023/10/20 01:24:06;;;;;;;6.60;3.97;;;15.00;99.90;;;;;;4913728;29;20370;-70
2023/10/20 01:26:32;;;;;;;9.43;3.50;;;14.90;99.90;;;;;;4915351;29;20040;-70
2023/10/20 01:28:59;;;;;;;4.95;3.30;;;14.90;99.90;;;;;;4911165;29;20044;-70
2023/10/20 01:31:25;;;;;;;6.25;2.80;;;14.90;99.90;;;;;;4913712;29;20040;-70
2023/10/20 01:33:51;;;;;;;6.32;3.10;;;14.90;99.90;;;;;;4913913;29;20051;-70
2023/10/20 01:36:17;;;;;;;4.72;2.90;;;14.90;99.90;;;;;;4914531;29;20412;-70
2023/10/20 01:38:44;;;;;;;7.95;3.28;;;14.90;99.90;;;;;;4912874;29;20115;-70
2023/10/20 01:41:10;;;;;;;9.25;3.60;;;14.90;99.90;;;;;;4913119;29;20031;-71
2023/10/20 01:43:36;;;;;;;5.90;2.53;;;14.90;99.90;;;;;;4917040;29;20083;-71
2023/10/20 01:46:03;;;;;;;7.32;3.72;;;14.90;99.90;;;;;;4917462;29;20496;-71
2023/10/20 01:48:30;;;;;;;5.80;3.05;;;14.90;99.90;;;;;;4913248;29;20050;-71
2023/10/20 01:50:59;;;;;;;4.38;2.65;;;14.80;99.90;;;;;;4910926;29;20043;-71
2023/10/20 01:53:25;;;;;;;8.93;3.72;;;14.90;99.90;;;;;;4918028;29;20043;-71
2023/10/20 01:55:51;;;;;;;4.13;2.35;;;14.90;99.90;;;;;;4917928;29;20039;-71
2023/10/20 01:58:20;;;;;;;5.75;3.33;;;14.90;99.90;;;;;;4912433;29;20024;-71
2023/10/20 02:00:50;;;;;;;5.10;3.22;;;14.80;99.90;;;;;;4917039;29;20040;-71
2023/10/20 02:03:17;;;;;;;8.32;4.15;;;14.90;99.90;;;;;;4916956;29;20047;-71
2023/10/20 02:05:43;;;;;;;6.90;3.25;;;14.90;99.90;;;;;;4916765;29;20055;-71
2023/10/20 02:08:09;;;;;;;5.53;3.05;;;14.90;99.90;;;;;;4917465;29;20032;-71
2023/10/20 02:10:35;;;;;;;6.60;3.22;;;14.90;99.90;;;;;;4918216;29;20393;-71
2023/10/20 02:13:02;;;;;;;11.05;3.08;;;14.90;99.90;;;;;;4916987;29;20140;-70
2023/10/20 02:15:29;;;;;;;6.40;3.80;;;14.90;99.90;;;;;;4914540;29;20111;-71
2023/10/20 02:17:56;;;;;;;8.45;4.63;;;14.70;99.90;;;;;;4914132;29;20083;-71
2023/10/20 02:20:25;;;;;;;7.90;4.53;;;14.70;99.90;;;;;;4916699;29;20031;-71
2023/10/20 02:22:51;;;;;;;8.10;3.30;;;14.70;99.90;;;;;;4916141;29;20040;-71
2023/10/20 02:25:17;;;;;;;8.13;3.65;;;14.70;99.90;;;;;;4917820;29;20063;-71
2023/10/20 02:27:43;;;;;;;5.18;3.05;;;14.70;99.90;;;;;;4915780;29;20036;-71
2023/10/20 02:30:14;;;;;;;6.85;3.45;;;14.80;99.90;;;;;;4918021;29;20036;-71
2023/10/20 02:32:43;;;;;;;5.18;3.05;;;14.80;99.90;;;;;;4916354;29;20032;-71
2023/10/20 02:35:09;;;;;;;5.40;2.97;;;14.80;99.90;;;;;;4916325;29;20034;-71
2023/10/20 02:37:35;;;;;;;5.95;2.67;;;14.60;99.90;;;;;;4915899;29;20054;-71
2023/10/20 02:40:04;;;;;;;4.25;2.40;;;14.60;99.90;;;;;;4931830;29;20060;-69
2023/10/20 02:42:34;;;;;;;8.32;3.88;;;14.60;99.90;;;;;;4916515;29;20055;-70
2023/10/20 02:45:00;;;;;;;4.15;2.45;;;14.70;99.90;;;;;;4916298;29;20154;-69
2023/10/20 02:47:26;;;;;;;6.03;2.80;;;14.70;99.90;;;;;;4917059;29;20079;-70
2023/10/20 02:49:55;;;;;;;6.18;2.90;;;14.70;99.90;;;;;;4931510;29;20036;-70
2023/10/20 02:52:25;;;;;;;5.20;3.35;;;14.60;99.90;;;;;;4917134;29;20047;-70
2023/10/20 02:54:54;;;;;;;5.57;3.38;;;14.60;99.90;;;;;;4915720;29;20512;-70
2023/10/20 02:57:22;;;;;;;5.53;3.05;;;14.60;99.90;;;;;;4915603;29;20047;-70
2023/10/20 02:59:49;;;;;;;7.85;3.72;;;14.70;99.90;;;;;;4915612;29;20028;-70
2023/10/20 03:02:22;;;;;;;7.50;3.33;;;14.70;99.90;;;;;;4915640;29;20028;-70
2023/10/20 03:04:54;;;;;;;6.85;3.70;;;14.60;99.90;;;;;;4915510;29;20127;-70
2023/10/20 03:07:24;;;;;;;5.78;3.55;;;14.60;99.90;;;;;;4915562;29;20046;-70
2023/10/20 03:09:54;;;;;;;5.27;3.47;;;14.60;99.90;;;;;;4916533;29;20453;-70
2023/10/20 03:12:20;;;;;;;8.65;4.30;;;14.50;99.90;;;;;;4915342;29;20299;-71
2023/10/20 03:14:46;;;;;;;5.72;3.35;;;14.60;99.90;;;;;;4913018;29;20043;-71
2023/10/20 03:17:12;;;;;;;6.40;3.33;;;14.60;99.90;;;;;;4916645;29;20040;-71
2023/10/20 03:19:40;;;;;;;8.90;3.17;;;14.60;99.90;;;;;;4915174;29;20020;-71
2023/10/20 03:22:06;;;;;;;5.32;3.25;;;14.60;99.90;;;;;;4916050;29;20548;-71
2023/10/20 03:24:32;;;;;;;9.20;3.90;;;14.70;99.90;;;;;;4916299;29;20028;-71
2023/10/20 03:26:58;;;;;;;8.15;3.58;;;14.70;99.90;;;;;;4916316;29;20491;-71
2023/10/20 03:29:25;;;;;;;5.03;3.13;;;14.70;99.90;;;;;;4914883;29;20043;-75
2023/10/20 03:31:51;;;;;;;6.65;3.38;;;14.70;99.90;;;;;;4916118;29;20024;-71
2023/10/20 03:34:16;;;;;;;7.60;4.25;;;14.70;99.90;;;;;;4915870;29;20369;-71
2023/10/20 03:36:42;;;;;;;10.13;3.72;;;14.70;99.90;;;;;;4916276;29;20036;-71
2023/10/20 03:39:20;;;;;;;6.90;3.28;;;14.70;99.90;;;;;;4914478;29;20020;-71
2023/10/20 03:41:49;;;;;;;6.25;3.28;;;14.60;99.90;;;;;;4916021;29;20028;-71
2023/10/20 03:44:14;;;;;;;6.88;3.60;;;14.70;99.90;;;;;;4912523;29;20075;-72
2023/10/20 03:46:49;;;;;;;6.38;3.85;;;14.60;99.90;;;;;;4916113;29;20032;-72
2023/10/20 03:49:16;;;;;;;5.00;2.75;;;14.60;99.90;;;;;;4914717;29;20096;-72
2023/10/20 03:51:51;;;;;;;5.53;3.40;;;14.50;99.90;;;;;;4916200;29;20059;-71
2023/10/20 03:54:24;;;;;;;6.80;2.58;;;14.60;99.90;;;;;;4916239;29;20168;-71
2023/10/20 03:56:50;;;;;;;5.05;3.20;;;14.50;99.90;;;;;;4914702;29;20035;-72
2023/10/20 03:59:16;;;;;;;4.68;2.70;;;14.60;99.90;;;;;;4915716;29;20032;-71
2023/10/20 04:01:42;;;;;;;8.65;2.70;;;14.60;99.90;;;;;;4914550;29;20048;-71
2023/10/20 04:04:11;;;;;;;6.20;2.70;;;14.60;99.90;;;;;;4914609;29;20481;-71
2023/10/20 04:06:37;;;;;;;6.05;3.22;;;14.50;99.90;;;;;;4914637;29;20067;-71
2023/10/20 04:09:09;;;;;;;4.45;2.58;;;14.60;99.90;;;;;;4915666;29;20099;-71
2023/10/20 04:11:38;;;;;;;5.32;3.10;;;14.50;99.90;;;;;;4914439;29;20039;-71
2023/10/20 04:14:06;;;;;;;6.22;3.20;;;14.40;99.90;;;;;;4915659;29;20028;-71
2023/10/20 04:16:39;;;;;;;5.65;3.33;;;14.50;99.90;;;;;;4926873;29;20035;-71
2023/10/20 04:19:09;;;;;;;5.72;3.55;;;14.50;99.90;;;;;;4914262;29;20035;-70
2023/10/20 04:21:43;;;;;;;5.25;3.40;;;14.50;99.90;;;;;;4930374;29;20024;-71
2023/10/20 04:24:10;;;;;;;5.35;3.47;;;14.50;99.90;;;;;;4914397;29;20044;-70
2023/10/20 04:26:44;;;;;;;9.70;3.00;;;14.50;99.90;;;;;;4914194;29;20032;-71
2023/10/20 04:41:51;;;;;;;6.47;3.08;;;14.50;99.90;;;;;;4915361;29;20024;-71
2023/10/20 04:48:59;;;;;;;9.68;4.22;;;14.60;99.90;;;;;;4911192;29;20063;-71
2023/10/20 04:51:18;;;;;;;5.20;2.42;;;14.60;99.90;;;;;;4915446;29;20465;-71
2023/10/20 04:53:54;;;;;;;6.22;3.10;;;14.50;99.90;;;;;;4915472;29;20579;-71
2023/10/20 04:56:41;;;;;;;3.25;2.38;;;14.50;99.90;;;;;;4915210;29;20397;-71
2023/10/20 04:59:10;;;;;;;6.53;2.22;;;14.50;99.90;;;;;;4914460;29;20032;-71
2023/10/20 05:01:47;;;;;;;5.13;1.98;;;14.50;99.90;;;;;;4915079;29;20035;-71
2023/10/20 05:04:36;;;;;;;3.67;1.85;;;14.50;99.90;;;;;;4911450;29;20103;-71
2023/10/20 05:07:11;;;;;;;1.95;1.35;;;14.60;99.90;;;;;;4914789;29;20179;-71
2023/10/20 05:09:54;;;;;;;3.25;1.60;;;14.60;99.90;;;;;;4911879;29;20036;-71
2023/10/20 05:12:20;;;;;;;4.25;1.83;;;14.60;99.90;;;;;;4895018;28;20417;-71
2023/10/20 05:14:49;;;;;;;3.65;1.58;;;14.70;99.90;;;;;;4913434;29;20032;-71
2023/10/20 05:17:17;;;;;;;2.75;1.55;;;14.60;99.90;;;;;;4918387;29;20016;-71
2023/10/20 05:19:44;;;;;;;3.90;2.20;;;14.60;99.90;;;;;;4924379;29;20101;-70
2023/10/20 05:22:09;;;;;;;7.00;2.33;;;14.60;99.90;;;;;;4929516;29;20400;-71
2023/10/20 05:24:35;;;;;;;3.28;1.65;;;14.60;99.90;;;;;;4915714;29;20037;-72
2023/10/20 05:27:01;;;;;;;2.55;1.42;;;14.60;99.90;;;;;;4926284;29;20028;-72
2023/10/20 05:29:27;;;;;;;3.45;1.60;;;14.60;99.90;;;;;;4924987;29;20083;-71
2023/10/20 05:31:52;;;;;;;3.42;1.67;;;14.60;99.90;;;;;;4937435;29;20036;-72
2023/10/20 05:34:18;;;;;;;3.55;2.00;;;14.70;99.90;;;;;;4925978;29;20107;-72
2023/10/20 05:36:44;;;;;;;2.65;1.77;;;14.70;99.90;;;;;;4927989;29;20722;-71
2023/10/20 05:39:13;;;;;;;4.30;1.67;;;14.60;99.90;;;;;;4927856;29;20028;-71
2023/10/20 05:41:40;;;;;;;2.83;1.35;;;14.60;99.90;;;;;;4928532;29;20032;-71
2023/10/20 05:44:06;;;;;;;3.55;1.15;;;14.60;99.90;;;;;;4921075;28;20460;-72
2023/10/20 05:46:32;;;;;;;4.45;1.23;;;14.70;99.90;;;;;;4931134;29;20032;-74
2023/10/20 05:48:58;;;;;;;1.88;0.93;;;14.70;99.90;;;;;;4930668;29;20034;-71
2023/10/20 05:51:23;;;;;;;1.73;1.20;;;14.80;99.90;;;;;;4922683;29;20040;-72
2023/10/20 05:53:49;;;;;;;6.68;1.20;;;15.00;99.90;;;;;;4922802;29;20035;-71
2023/10/20 05:56:15;;;;;;;2.03;1.10;;;15.00;99.90;;;;;;4926490;29;20043;-71
2023/10/20 05:58:41;;;;;;;3.20;1.92;;;15.00;99.90;;;;;;4917892;29;20708;-71
2023/10/20 06:01:11;;;;;;;2.45;1.40;;;15.00;99.90;;;;;;4935503;29;20027;-70
2023/10/20 06:03:37;;;;;;;6.95;1.60;;;15.00;99.90;;;;;;4923947;29;20091;-70
2023/10/20 06:06:03;;;;;;;3.70;1.65;;;14.90;99.90;;;;;;4928450;29;20115;-71
2023/10/20 06:08:30;;;;;;;3.28;1.15;;;15.00;99.90;;;;;;4916858;29;20046;-71
2023/10/20 06:11:04;;;;;;;3.92;1.52;;;15.00;99.90;;;;;;4936824;29;20035;-71
2023/10/20 06:13:32;;;;;;;3.10;1.80;;;14.90;99.90;;;;;;4931510;29;20067;-70
2023/10/20 06:16:04;;;;;;;3.90;1.40;;;14.90;99.90;;;;;;4935616;29;20118;-71
2023/10/20 06:18:30;;;;;;;7.05;1.77;;;14.90;99.90;;;;;;4927826;29;20043;-70
2023/10/20 06:20:56;;;;;;;2.28;1.15;;;14.90;99.90;;;;;;4948426;28;20038;-71
2023/10/20 06:23:22;;;;;;;5.75;2.55;;;14.90;99.90;;;;;;4927685;29;20035;-71
2023/10/20 06:25:48;;;;;;;6.90;1.80;;;14.90;99.90;;;;;;4934272;29;20031;-72
2023/10/20 06:28:13;;;;;;;4.30;0.88;;;14.90;99.90;;;;;;4917481;29;20402;-73
2023/10/20 06:30:49;;;;;;;2.45;1.45;;;14.90;99.90;;;;;;4917796;29;20107;-71
2023/10/20 06:35:52;;;;;;;4.75;2.38;;;15.00;99.90;;;;;;4917880;29;20076;-71
2023/10/20 06:41:08;;;;;;;1.40;1.00;;;15.70;99.90;;;;;;4929186;29;20362;-71
2023/10/20 06:43:34;;;;;;;5.07;1.15;;;15.80;99.90;;;;;;4932592;29;20126;-71
2023/10/20 06:46:00;;;;;;;3.42;1.50;;;15.70;99.90;;;;;;4925568;29;20135;-71
2023/10/20 06:48:29;;;;;;;3.17;1.27;;;15.60;99.90;;;;;;4923763;29;20507;-71
2023/10/20 06:50:56;;;;;;;2.83;1.30;;;15.50;99.90;;;;;;4917933;29;20043;-72
2023/10/20 06:53:22;;;;;;;1.73;1.20;;;15.50;99.90;;;;;;4916666;29;20039;-71
2023/10/20 06:55:51;;;;;;;1.95;1.20;;;15.50;99.90;;;;;;4933915;29;20035;-72
2023/10/20 06:58:19;;;;;;;2.28;1.15;;;15.40;99.90;;;;;;4938966;29;20472;-72
2023/10/20 07:00:46;;;;;;;2.35;1.35;;;15.50;99.90;;;;;;4933641;29;20209;-72
2023/10/20 07:03:13;;;;;;;2.05;1.02;;;15.50;99.90;;;;;;4922891;29;20046;-71
2023/10/20 07:05:42;;;;;;;6.55;1.48;;;15.40;99.90;;;;;;4934997;29;20054;-71
2023/10/20 07:08:08;;;;;;;3.40;1.40;;;15.40;99.90;;;;;;4919099;29;20032;-72
2023/10/20 07:10:37;;;;;;;1.70;1.23;;;15.40;99.90;;;;;;4923389;29;20522;-71
2023/10/20 07:13:08;;;;;;;3.63;1.23;;;15.40;99.90;;;;;;4924286;29;20066;-70
2023/10/20 07:15:35;;;;;;;2.20;1.30;;;15.40;99.90;;;;;;4932626;29;20072;-69
2023/10/20 07:18:02;;;;;;;3.40;1.40;;;15.50;99.90;;;;;;4920024;29;20072;-69
2023/10/20 07:20:30;;;;;;;1.85;0.82;;;15.50;99.90;;;;;;4926313;29;20059;-69
2023/10/20 07:22:56;;;;;;;1.65;1.08;;;15.60;99.90;;;;;;4931730;29;20043;-69
2023/10/20 07:25:22;;;;;;;1.27;0.73;;;15.70;99.90;;;;;;4902803;29;20024;-70
2023/10/20 07:27:48;;;;;;;1.90;0.90;;;15.80;99.90;;;;;;4924511;29;20039;-71
2023/10/20 07:30:16;;;;;;;5.13;1.05;;;16.00;99.90;;;;;;4935889;29;20044;-70
2023/10/20 07:32:44;;;;;;;1.17;0.80;;;16.20;99.90;;;;;;4923817;29;20088;-70
2023/10/20 07:35:11;;;;;;;1.55;0.75;;;16.40;99.90;;;;;;4923192;29;20130;-70
2023/10/20 07:37:38;;;;;;;0.60;0.35;;;16.90;99.90;;;;;;4924978;29;20373;-69
2023/10/20 07:40:07;;;;;;;0.25;0.20;;;17.10;99.90;;;;;;4928450;29;20488;-70
2023/10/20 07:42:32;;;;;;;0.30;0.30;;;17.10;99.90;;;;;;4930095;29;20040;-70
2023/10/20 07:45:00;;;;;;;0.63;0.43;;;17.70;99.90;;;;;;4927239;28;20027;-69
2023/10/20 07:47:26;;;;;;;0.77;0.40;;;17.60;99.90;;;;;;4924060;29;20477;-69
2023/10/20 07:49:52;;;;;;;0.70;0.47;;;17.50;99.90;;;;;;4929729;29;20036;-70
2023/10/20 07:52:19;;;;;;;2.53;0.82;;;17.60;99.90;;;;;;4925927;29;20380;-70
2023/10/20 07:54:45;;;;;;;0.85;0.70;;;17.60;99.90;;;;;;4922552;29;20127;-70
2023/10/20 07:57:13;;;;;;;1.00;0.55;;;17.50;99.90;;;;;;4926562;29;20103;-70
2023/10/20 07:59:39;;;;;;;0.85;0.45;;;17.50;99.90;;;;;;4920294;29;20123;-71
2023/10/20 08:02:05;;;;;;;1.35;0.65;;;17.60;99.90;;;;;;4934094;29;20107;-71
2023/10/20 08:04:32;;;;;;;1.50;0.60;;;17.60;99.90;;;;;;4945758;29;20028;-70
2023/10/20 08:06:59;;;;;;;3.03;1.30;;;17.70;99.90;;;;;;4917620;29;20031;-70
2023/10/20 08:09:27;;;;;;;2.60;1.25;;;17.50;99.90;;;;;;4914272;29;20056;-70
2023/10/20 08:11:53;;;;;;;5.13;2.10;;;17.40;99.90;;;;;;4915780;29;20032;-70
2023/10/20 08:14:20;;;;;;;3.45;1.65;;;17.40;99.90;;;;;;4928566;29;20055;-70
2023/10/20 08:16:47;;;;;;;4.85;1.83;;;17.40;99.90;;;;;;4921821;29;20087;-70
2023/10/20 08:19:13;;;;;;;8.05;3.08;;;17.10;99.90;;;;;;4929923;29;20027;-70
2023/10/20 08:21:39;;;;;;;8.48;1.75;;;16.80;99.90;;;;;;4917900;29;20040;-71
2023/10/20 08:24:06;;;;;;;3.45;1.90;;;16.80;99.90;;;;;;4922698;29;20026;-71
2023/10/20 08:26:32;;;;;;;4.57;2.17;;;16.70;99.90;;;;;;4918805;29;20064;-71
2023/10/20 08:28:59;;;;;;;5.38;2.28;;;16.60;99.90;;;;;;4919645;29;20019;-72
2023/10/20 08:31:25;;;;;;;7.40;3.50;;;16.50;99.90;;;;;;4928367;28;20042;-71
2023/10/20 08:33:52;;;;;;;6.53;3.25;;;16.30;99.90;;;;;;4926686;29;20038;-71
2023/10/20 08:36:22;;;;;;;8.50;3.88;;;16.10;99.90;;;;;;4928621;29;20024;-71
2023/10/20 08:38:52;;;;;;;7.63;4.15;;;15.80;99.90;;;;;;4924649;29;20051;-71
2023/10/20 08:41:23;;;;;;;6.72;3.47;;;15.70;99.90;;;;;;4920404;29;20113;-72
2023/10/20 08:43:49;;;;;;;9.80;3.75;;;15.50;99.90;;;;;;4926114;29;20032;-71
2023/10/20 08:46:17;;;;;;;5.20;2.72;;;15.20;99.90;;;;;;4928171;29;20048;-70
2023/10/20 08:48:45;;;;;;;7.18;4.10;;;15.00;99.90;;;;;;4921284;29;20432;-71
2023/10/20 08:51:14;;;;;;;6.47;3.83;;;14.90;99.90;;;;;;4923765;29;20111;-71
2023/10/20 08:53:42;;;;;;;6.25;3.63;;;14.90;99.90;;;;;;4915410;29;20135;-71
2023/10/20 08:56:10;;;;;;;8.13;3.45;;;14.90;99.90;;;;;;4926274;29;20028;-71
2023/10/20 08:58:36;;;;;;;5.32;3.15;;;14.90;99.90;;;;;;4928039;29;20035;-71
2023/10/20 09:01:03;;;;;;;4.57;3.08;;;14.90;99.90;;;;;;4925450;29;20036;-71
2023/10/20 09:03:44;;;;;;;4.50;2.80;;;14.90;99.90;;;;;;4913977;29;20092;-70
2023/10/20 09:06:14;;;;;;;4.93;3.08;;;15.00;99.90;;;;;;4941908;29;20031;-71
2023/10/20 09:08:45;;;;;;;5.38;2.85;;;15.00;99.90;;;;;;4922976;29;20040;-71
2023/10/20 09:11:12;;;;;;;5.05;2.97;;;15.00;99.90;;;;;;4920052;29;20030;-71
2023/10/20 09:13:40;;;;;;;6.28;2.25;;;15.00;99.90;;;;;;4917615;29;20117;-71
2023/10/20 09:16:10;;;;;;;4.45;3.13;;;15.00;99.90;;;;;;4929799;28;20032;-71
2023/10/20 09:18:50;;;;;;;15.02;3.13;;;15.00;99.90;;;;;;4940232;29;20028;-71
2023/10/20 09:21:22;;;;;;;8.87;3.50;;;15.00;99.90;;;;;;4921925;29;20024;-71
2023/10/20 09:24:01;;;;;;;8.15;3.95;;;15.10;99.90;;;;;;4928741;29;20036;-71
2023/10/20 09:26:31;;;;;;;4.95;2.42;;;15.00;99.90;;;;;;4930072;29;20045;-71
2023/10/20 09:28:57;;;;;;;4.28;2.58;;;15.10;99.90;;;;;;4916747;29;20031;-75
2023/10/20 09:31:25;;;;;;;6.57;3.60;;;15.20;99.90;;;;;;4927230;29;20040;-75
2023/10/20 09:33:51;;;;;;;9.90;3.17;;;15.30;99.90;;;;;;4916906;29;20036;-69
2023/10/20 09:36:19;;;;;;;5.45;3.05;;;15.40;99.90;;;;;;4918753;29;20103;-69
2023/10/20 09:38:50;;;;;;;5.40;3.15;;;15.40;99.90;;;;;;4918997;29;20079;-69
2023/10/20 09:41:17;;;;;;;5.20;3.55;;;15.50;99.90;;;;;;4913070;29;20036;-70
2023/10/20 09:44:02;;;;;;;5.15;2.63;;;15.60;99.90;;;;;;4913184;29;20040;-70
2023/10/20 09:46:59;;;;;;;4.85;2.97;;;15.70;99.90;;;;;;4918200;29;20449;-70
2023/10/20 09:49:27;;;;;;;5.93;3.10;;;15.70;99.90;;;;;;4929035;29;20404;-71
2023/10/20 09:51:56;;;;;;;3.78;2.20;;;15.80;99.90;;;;;;4916440;29;20039;-72
2023/10/20 09:54:34;;;;;;;9.35;2.88;;;15.70;99.90;;;;;;4921241;29;20354;-71
2023/10/20 09:57:01;;;;;;;4.55;2.50;;;15.80;99.90;;;;;;4928343;29;20123;-71
2023/10/20 09:59:27;;;;;;;12.50;2.80;;;15.80;99.90;;;;;;4943092;29;20484;-71
2023/10/20 10:01:59;;;;;;;5.63;3.50;;;15.80;99.90;;;;;;4926759;29;20039;-71
2023/10/20 10:04:33;;;;;;;4.70;2.47;;;15.80;99.90;;;;;;4921817;29;20384;-71
2023/10/20 10:07:09;;;;;;;3.72;2.30;;;15.80;99.90;;;;;;4927020;29;20040;-71
2023/10/20 10:09:49;;;;;;;6.57;2.95;;;15.80;99.90;;;;;;4934579;29;20047;-71
2023/10/20 10:12:19;;;;;;;4.63;2.85;;;15.90;99.90;;;;;;4929088;29;20047;-71
2023/10/20 10:15:02;;;;;;;5.43;3.05;;;15.70;99.90;;;;;;4944235;29;20032;-71
2023/10/20 10:17:30;;;;;;;5.90;3.22;;;15.90;99.90;;;;;;4918733;29;20511;-72
2023/10/20 10:19:56;;;;;;;5.25;2.95;;;15.90;99.90;;;;;;4930160;29;20123;-71
2023/10/20 10:22:28;;;;;;;5.88;3.33;;;16.00;99.90;;;;;;4914504;29;20035;-69
2023/10/20 10:24:56;;;;;;;7.32;3.10;;;16.20;99.90;;;;;;4929491;29;20075;-71
2023/10/20 10:27:27;;;;;;;6.28;2.90;;;16.40;99.90;;;;;;4916383;29;20083;-70
2023/10/20 10:30:00;;;;;;;7.80;3.25;;;16.50;99.90;;;;;;4913933;29;20618;-73
2023/10/20 10:32:31;;;;;;;4.72;2.75;;;16.40;99.90;;;;;;4915781;29;20048;-70
2023/10/20 10:34:58;;;;;;;5.45;2.97;;;16.40;99.90;;;;;;4916701;29;20044;-71
2023/10/20 10:37:35;;;;;;;4.82;2.78;;;16.40;99.90;;;;;;4912800;29;20083;-71
2023/10/20 10:40:09;;;;;;;4.40;2.53;;;16.40;99.90;;;;;;4931203;29;20042;-71
2023/10/20 10:42:42;;;;;;;5.13;2.53;;;16.40;99.90;;;;;;4927329;29;20051;-72
2023/10/20 10:45:27;;;;;;;5.75;2.83;;;16.40;99.90;;;;;;4915316;29;20040;-72
2023/10/20 10:48:11;;;;;;;7.43;2.90;;;16.30;99.90;;;;;;4929019;29;20066;-71
2023/10/20 10:50:45;;;;;;;5.40;2.95;;;16.40;99.90;;;;;;4914492;29;20036;-72
2023/10/20 10:53:13;;;;;;;5.57;2.38;;;16.40;99.90;;;;;;4914149;29;20031;-72
2023/10/20 10:55:40;;;;;;;6.97;2.92;;;16.40;99.90;;;;;;4927692;29;20099;-72
2023/10/20 10:58:14;;;;;;;7.50;3.03;;;16.40;99.90;;;;;;4932643;29;20020;-71
2023/10/20 11:00:43;;;;;;;4.68;2.72;;;16.40;99.90;;;;;;4920651;29;20024;-71
2023/10/20 11:03:09;;;;;;;8.18;3.38;;;16.50;99.90;;;;;;4919069;29;20032;-71
2023/10/20 11:05:36;;;;;;;5.90;3.10;;;16.60;99.90;;;;;;4916994;29;20119;-72
2023/10/20 11:08:05;;;;;;;5.10;2.30;;;16.80;99.90;;;;;;4909454;29;20036;-71
2023/10/20 11:10:34;;;;;;;4.75;2.75;;;16.90;99.90;;;;;;4912379;29;20036;-71
2023/10/20 11:13:08;;;;;;;4.47;2.50;;;17.20;99.90;;;;;;4913647;29;20028;-71
2023/10/20 11:15:35;;;;;;;4.90;2.40;;;17.60;99.90;;;;;;4922890;29;20571;-72
2023/10/20 11:18:05;;;;;;;4.88;2.10;;;17.70;99.90;;;;;;4913028;29;20043;-74
2023/10/20 11:20:37;;;;;;;5.57;2.65;;;17.70;99.90;;;;;;4926093;29;20429;-73
2023/10/20 11:23:07;;;;;;;4.57;2.28;;;17.70;99.90;;;;;;4923168;29;20714;-71
2023/10/20 11:25:33;;;;;;;2.55;1.60;;;17.90;99.90;;;;;;4927327;29;20047;-71
2023/10/20 11:27:58;;;;;;;2.33;1.27;;;18.10;99.90;;;;;;4925216;29;20500;-71
2023/10/20 11:30:38;;;;;;;3.00;1.45;;;18.20;99.90;;;;;;4916685;29;20159;-71
2023/10/20 11:33:04;;;;;;;4.07;1.65;;;18.10;99.90;;;;;;4927408;29;20054;-72
2023/10/20 11:35:30;;;;;;;4.82;1.98;;;18.10;99.90;;;;;;4934720;29;20063;-71
2023/10/20 11:37:58;;;;;;;8.55;2.55;;;18.00;99.90;;;;;;4922278;29;20039;-71
2023/10/20 11:40:28;;;;;;;4.18;1.60;;;17.80;99.90;;;;;;4923175;28;20031;-71
2023/10/20 11:42:57;;;;;;;1.75;1.20;;;17.70;99.90;;;;;;4911941;29;20067;-70
2023/10/20 11:45:24;;;;;;;3.05;1.35;;;17.50;99.90;;;;;;4919040;28;20031;-70
2023/10/20 11:47:51;;;;;;;5.22;1.33;;;17.40;99.90;;;;;;4924249;29;20400;-70
2023/10/20 11:50:19;;;;;;;6.63;1.58;;;17.50;99.90;;;;;;4922668;29;20499;-71
2023/10/20 11:52:45;;;;;;;2.20;1.50;;;17.40;99.90;;;;;;4930128;29;20039;-71
2023/10/20 11:55:11;;;;;;;2.40;1.15;;;17.50;99.90;;;;;;4919418;29;20028;-72
2023/10/20 11:57:38;;;;;;;1.92;1.25;;;17.60;99.90;;;;;;4918943;29;20810;-70
2023/10/20 12:00:09;;;;;;;2.03;1.20;;;17.50;99.90;;;;;;4912746;29;20039;-69
2023/10/20 12:02:36;;;;;;;2.05;1.15;;;17.80;99.90;;;;;;4921933;29;20043;-70
2023/10/20 12:05:02;;;;;;;2.67;1.55;;;18.50;99.90;;;;;;4928181;29;20122;-70
2023/10/20 12:07:28;;;;;;;2.25;1.27;;;19.20;99.90;;;;;;4923999;29;20107;-70
2023/10/20 12:09:54;;;;;;;2.20;1.23;;;19.40;99.90;;;;;;4918292;29;20048;-70
2023/10/20 12:12:20;;;;;;;1.30;0.80;;;20.80;99.90;;;;;;4926616;29;20038;-70
2023/10/20 12:14:46;;;;;;;5.38;1.17;;;21.00;99.90;;;;;;4929317;29;20075;-70
2023/10/20 12:17:12;;;;;;;2.03;1.52;;;20.50;99.90;;;;;;4920800;29;20095;-70
2023/10/20 12:19:39;;;;;;;9.77;1.10;;;20.00;99.90;;;;;;4930621;29;20493;-70
2023/10/20 12:22:05;;;;;;;2.22;1.13;;;19.30;99.90;;;;;;4924799;29;20019;-69
2023/10/20 12:24:31;;;;;;;2.15;0.75;;;19.30;99.90;;;;;;4929935;29;20115;-69
2023/10/20 12:26:59;;;;;;;2.05;0.98;;;18.90;99.90;;;;;;4932177;29;20738;-70
2023/10/20 12:29:26;;;;;;;2.03;1.17;;;18.70;99.90;;;;;;4888272;28;20137;-69
2023/10/20 12:31:52;;;;;;;3.63;1.08;;;18.70;99.90;;;;;;4911966;29;20202;-70
2023/10/20 12:34:19;;;;;;;1.88;1.08;;;18.50;99.90;;;;;;4912389;29;20494;-70
2023/10/20 12:36:45;;;;;;;4.75;0.98;;;18.40;99.90;;;;;;4919609;29;20054;-70
2023/10/20 12:39:17;;;;;;;1.08;0.68;;;18.40;99.90;;;;;;4934486;29;20032;-69
2023/10/20 12:41:52;;;;;;;1.17;0.70;;;18.40;99.90;;;;;;4911428;29;20051;-70
2023/10/20 12:44:18;;;;;;;1.58;0.80;;;18.50;99.90;;;;;;4915726;29;20051;-69
2023/10/20 12:46:44;;;;;;;0.65;0.55;;;18.50;99.90;;;;;;4912151;29;20151;-69
2023/10/20 12:49:10;;;;;;;3.92;0.80;;;18.50;99.90;;;;;;4925342;29;20107;-70
2023/10/20 12:51:37;;;;;;;0.50;0.40;;;18.60;99.90;;;;;;4920967;29;20040;-70
2023/10/20 12:54:04;;;;;;;0.63;0.52;;;18.60;99.90;;;;;;4915950;29;20122;-70
2023/10/20 12:56:30;;;;;;;0.65;0.43;;;18.70;99.90;;;;;;4933651;29;20040;-70
2023/10/20 12:58:56;;;;;;;1.52;0.88;;;18.70;99.90;;;;;;4922214;29;20043;-70
2023/10/20 13:01:22;;;;;;;1.38;0.82;;;18.80;99.90;;;;;;4931316;29;20030;-70
2023/10/20 13:03:49;;;;;;;0.90;0.60;;;18.80;99.90;;;;;;4914095;29;20786;-70
2023/10/20 13:06:15;;;;;;;0.73;0.45;;;18.80;99.90;;;;;;4936770;29;20040;-71
2023/10/20 13:08:43;;;;;;;0.77;0.45;;;18.80;99.90;;;;;;4923581;29;20481;-70
2023/10/20 13:11:10;;;;;;;0.40;0.40;;;18.50;99.90;;;;;;4944345;29;20067;-70
2023/10/20 13:13:36;;;;;;;1.67;0.88;;;18.60;99.90;;;;;;4904805;29;20032;-71